createdAt,value
2022-07-27T00:00:48.096Z,42.93
2022-07-27T00:03:14.902Z,43.16
2022-07-27T00:05:41.775Z,43.38
2022-07-27T00:08:08.521Z,43.36
2022-07-27T00:10:36.833Z,43.56
2022-07-27T00:13:05.147Z,43.63
2022-07-27T00:15:33.524Z,43.62
2022-07-27T00:18:01.153Z,43.60
2022-07-27T00:20:32.051Z,43.47
2022-07-27T00:22:59.609Z,43.96
2022-07-27T00:25:27.643Z,43.87
2022-07-27T00:27:57.941Z,44.13
2022-07-27T00:30:26.183Z,44.06
2022-07-27T00:32:53.337Z,44.48
2022-07-27T00:35:20.182Z,44.62
2022-07-27T00:37:46.871Z,44.33
2022-07-27T00:40:13.553Z,44.70
2022-07-27T00:42:40.197Z,44.37
2022-07-27T00:45:07.673Z,44.50
2022-07-27T00:47:34.336Z,44.24
2022-07-27T00:50:02.938Z,44.31
2022-07-27T00:52:30.721Z,44.49
2022-07-27T00:54:58.706Z,45.10
2022-07-27T00:57:26.965Z,44.94
2022-07-27T00:59:54.162Z,44.65
2022-07-27T01:02:22.956Z,44.38
2022-07-27T01:04:53.665Z,44.91
2022-07-27T01:07:24.722Z,44.44
2022-07-27T01:09:58.195Z,44.96
2022-07-27T01:12:30.728Z,44.71
2022-07-27T01:14:58.764Z,44.37
2022-07-27T01:17:27.172Z,44.74
2022-07-27T01:19:53.854Z,45.21
2022-07-27T01:22:20.582Z,44.75
2022-07-27T01:24:48.553Z,44.79
2022-07-27T01:27:15.213Z,44.27
2022-07-27T01:29:42.092Z,44.19
2022-07-27T01:32:08.912Z,43.84
2022-07-27T01:34:36.060Z,43.53
2022-07-27T01:37:04.741Z,43.48
2022-07-27T01:39:32.239Z,43.58
2022-07-27T01:41:59.695Z,43.61
2022-07-27T01:44:26.570Z,43.98
2022-07-27T01:46:53.633Z,43.89
2022-07-27T01:49:20.535Z,43.68
2022-07-27T01:51:47.220Z,43.43
2022-07-27T01:54:14.061Z,43.60
2022-07-27T01:56:41.158Z,43.75
2022-07-27T01:59:07.946Z,43.84
2022-07-27T02:01:43.069Z,43.56
2022-07-27T02:04:10.000Z,43.53
2022-07-27T02:06:36.713Z,43.78
2022-07-27T02:09:03.662Z,43.64
2022-07-27T02:11:48.883Z,43.68
2022-07-27T02:14:16.470Z,43.36
2022-07-27T02:16:43.447Z,43.79
2022-07-27T02:19:11.276Z,43.63
2022-07-27T02:21:38.951Z,43.82
2022-07-27T02:24:06.015Z,43.74
2022-07-27T02:26:32.748Z,44.01
2022-07-27T02:28:59.500Z,43.96
2022-07-27T02:31:26.171Z,43.89
2022-07-27T02:33:59.516Z,43.83
2022-07-27T02:36:29.154Z,44.35
2022-07-27T02:38:55.802Z,44.30
2022-07-27T02:41:22.509Z,44.24
2022-07-27T02:43:49.115Z,44.20
2022-07-27T02:46:15.914Z,44.04
2022-07-27T02:48:42.629Z,44.35
2022-07-27T02:51:09.260Z,44.81
2022-07-27T02:53:35.943Z,44.50
2022-07-27T02:56:02.717Z,44.45
2022-07-27T02:58:29.687Z,44.70
2022-07-27T03:00:58.604Z,44.29
2022-07-27T03:03:35.986Z,44.73
2022-07-27T03:06:05.957Z,44.86
2022-07-27T03:08:32.613Z,44.85
2022-07-27T03:10:59.363Z,44.89
2022-07-27T03:13:28.865Z,44.62
2022-07-27T03:15:56.544Z,44.96
2022-07-27T03:18:23.405Z,45.02
2022-07-27T03:20:50.177Z,45.07
2022-07-27T03:23:18.423Z,45.25
2022-07-27T03:25:45.095Z,45.03
2022-07-27T03:28:11.931Z,44.99
2022-07-27T03:30:38.614Z,45.25
2022-07-27T03:33:05.305Z,45.26
2022-07-27T03:35:32.089Z,45.34
2022-07-27T03:37:59.034Z,44.92
2022-07-27T03:40:25.688Z,44.91
2022-07-27T03:42:52.324Z,44.91
2022-07-27T03:45:19.404Z,44.34
2022-07-27T03:47:46.021Z,44.68
2022-07-27T03:50:12.674Z,44.33
2022-07-27T03:52:39.349Z,43.86
2022-07-27T03:55:12.068Z,44.40
2022-07-27T03:57:38.719Z,44.00
2022-07-27T04:00:06.795Z,44.18
2022-07-27T04:02:33.581Z,44.57
2022-07-27T04:05:00.261Z,45.04
2022-07-27T04:07:27.177Z,44.31
2022-07-27T04:09:53.855Z,44.61
2022-07-27T04:12:20.605Z,44.45
2022-07-27T04:14:47.965Z,44.66
2022-07-27T04:17:55.569Z,44.35
2022-07-27T04:20:01.330Z,44.83
2022-07-27T04:22:28.296Z,44.35
2022-07-27T04:24:55.078Z,44.41
2022-07-27T04:27:21.823Z,44.10
2022-07-27T04:29:48.917Z,44.39
2022-07-27T04:32:15.630Z,44.33
2022-07-27T04:34:42.310Z,44.22
2022-07-27T04:37:09.053Z,44.79
2022-07-27T04:39:35.722Z,44.97
2022-07-27T04:42:02.494Z,44.92
2022-07-27T04:44:29.262Z,45.14
2022-07-27T04:46:56.156Z,44.76
2022-07-27T04:49:22.998Z,45.92
2022-07-27T04:51:49.774Z,45.46
2022-07-27T04:54:16.472Z,45.97
2022-07-27T04:56:43.234Z,46.26
2022-07-27T04:59:10.317Z,46.37
2022-07-27T05:01:37.313Z,46.31
2022-07-27T05:04:05.285Z,46.74
2022-07-27T05:06:33.048Z,46.20
2022-07-27T05:08:59.966Z,45.69
2022-07-27T05:11:26.739Z,45.50
2022-07-27T05:13:53.424Z,45.97
2022-07-27T05:16:20.486Z,45.66
2022-07-27T05:18:48.661Z,45.58
2022-07-27T05:21:15.300Z,45.26
2022-07-27T05:23:42.083Z,44.87
2022-07-27T05:26:08.834Z,44.95
2022-07-27T05:28:35.514Z,45.23
2022-07-27T05:31:02.589Z,45.08
2022-07-27T05:33:29.319Z,44.96
2022-07-27T05:35:57.135Z,44.67
2022-07-27T05:38:23.858Z,44.72
2022-07-27T05:40:51.540Z,44.76
2022-07-27T05:43:18.240Z,44.86
2022-07-27T05:45:45.098Z,44.87
2022-07-27T05:48:11.849Z,44.49
2022-07-27T05:50:38.548Z,43.96
2022-07-27T05:53:06.058Z,43.86
2022-07-27T05:55:33.459Z,43.95
2022-07-27T05:58:00.293Z,43.54
2022-07-27T06:00:27.252Z,43.54
2022-07-27T06:02:54.587Z,43.27
2022-07-27T06:05:21.421Z,43.20
2022-07-27T06:08:00.544Z,43.15
2022-07-27T06:10:32.781Z,43.34
2022-07-27T06:13:01.036Z,43.05
2022-07-27T06:15:27.779Z,42.96
2022-07-27T06:17:54.961Z,43.19
2022-07-27T06:20:23.253Z,43.35
2022-07-27T06:22:55.452Z,43.42
2022-07-27T06:25:23.090Z,43.42
2022-07-27T06:28:01.405Z,43.26
2022-07-27T06:30:28.392Z,43.23
2022-07-27T06:32:55.207Z,43.20
2022-07-27T06:35:23.393Z,42.80
2022-07-27T06:37:53.000Z,42.64
2022-07-27T06:40:19.862Z,42.43
2022-07-27T06:42:47.044Z,42.45
2022-07-27T06:45:13.801Z,41.89
2022-07-27T06:47:49.924Z,41.60
2022-07-27T06:50:21.362Z,42.40
2022-07-27T06:52:49.692Z,41.85
2022-07-27T06:55:17.093Z,42.33
2022-07-27T06:57:44.091Z,42.71
2022-07-27T07:00:11.872Z,43.01
2022-07-27T07:02:40.270Z,42.90
2022-07-27T07:05:07.140Z,42.82
2022-07-27T07:07:34.079Z,42.57
2022-07-27T07:10:00.964Z,42.36
2022-07-27T07:12:28.559Z,42.13
2022-07-27T07:14:55.378Z,42.87
2022-07-27T07:17:22.205Z,43.11
2022-07-27T07:19:48.998Z,42.69
2022-07-27T07:22:15.804Z,42.36
2022-07-27T07:24:42.745Z,41.37
2022-07-27T07:27:09.416Z,40.35
2022-07-27T07:29:36.059Z,38.68
2022-07-27T07:32:02.794Z,37.92
2022-07-27T07:34:29.647Z,37.57
2022-07-27T07:36:56.400Z,37.15
2022-07-27T07:39:26.637Z,37.39
2022-07-27T07:41:57.469Z,37.63
2022-07-27T07:44:24.236Z,38.48
2022-07-27T07:46:51.179Z,38.64
2022-07-27T07:49:18.485Z,38.27
2022-07-27T07:52:04.906Z,37.33
2022-07-27T07:54:31.667Z,36.64
2022-07-27T07:56:58.260Z,35.35
2022-07-27T07:59:25.094Z,34.62
2022-07-27T08:01:51.942Z,32.91
2022-07-27T08:04:18.687Z,32.73
2022-07-27T08:06:45.958Z,32.61
2022-07-27T08:09:17.037Z,32.12
2022-07-27T08:11:44.827Z,32.38
2022-07-27T08:14:11.525Z,32.71
2022-07-27T08:16:38.587Z,32.47
2022-07-27T08:19:05.435Z,32.49
2022-07-27T08:21:35.393Z,31.84
2022-07-27T08:24:03.746Z,31.17
2022-07-27T08:26:30.553Z,30.20
2022-07-27T08:28:57.261Z,29.86
2022-07-27T08:31:51.621Z,26.90
2022-07-27T08:34:13.028Z,27.62
2022-07-27T08:36:39.736Z,29.34
2022-07-27T08:39:08.452Z,29.38
2022-07-27T08:41:38.905Z,28.35
2022-07-27T08:44:14.123Z,28.60
2022-07-27T08:46:44.407Z,30.02
2022-07-27T08:49:13.432Z,30.58
2022-07-27T08:51:46.856Z,30.57
2022-07-27T08:54:14.079Z,30.17
2022-07-27T08:56:40.924Z,29.59
2022-07-27T08:59:07.693Z,25.38
2022-07-27T09:01:37.422Z,23.16
2022-07-27T09:04:04.431Z,24.70
2022-07-27T09:06:42.949Z,26.44
2022-07-27T09:09:11.399Z,27.15
2022-07-27T09:11:38.618Z,26.05
2022-07-27T09:14:07.365Z,24.19
2022-07-27T09:17:14.756Z,22.98
2022-07-27T09:19:21.944Z,23.04
2022-07-27T09:21:48.641Z,21.33
2022-07-27T09:24:45.770Z,22.24
2022-07-27T09:27:05.625Z,23.42
2022-07-27T09:29:36.544Z,25.07
2022-07-27T09:32:15.282Z,24.78
2022-07-27T09:34:41.922Z,25.36
2022-07-27T09:37:10.674Z,26.19
2022-07-27T09:39:39.113Z,26.27
2022-07-27T09:42:06.109Z,26.42
2022-07-27T09:44:43.719Z,27.22
2022-07-27T09:47:33.335Z,26.19
2022-07-27T09:50:18.212Z,25.23
2022-07-27T09:52:45.672Z,23.40
2022-07-27T09:55:15.292Z,23.80
2022-07-27T09:57:52.661Z,23.04
2022-07-27T10:00:19.778Z,20.55
2022-07-27T10:02:47.466Z,16.97
2022-07-27T10:05:18.145Z,15.52
2022-07-27T10:07:45.467Z,16.99
2022-07-27T10:10:14.502Z,17.47
2022-07-27T10:12:43.183Z,17.90
2022-07-27T10:15:13.448Z,17.14
2022-07-27T10:17:44.096Z,16.17
2022-07-27T10:20:13.862Z,16.50
2022-07-27T10:23:01.033Z,17.06
2022-07-27T10:25:37.374Z,16.39
2022-07-27T10:28:17.731Z,15.52
2022-07-27T10:30:54.546Z,14.40
2022-07-27T10:33:42.717Z,13.37
2022-07-27T10:36:18.050Z,15.00
2022-07-27T10:38:47.999Z,16.66
2022-07-27T10:41:22.489Z,17.02
2022-07-27T10:43:51.423Z,17.28
2022-07-27T10:46:21.273Z,17.07
2022-07-27T10:48:49.446Z,16.55
2022-07-27T10:51:17.370Z,15.46
2022-07-27T10:56:47.186Z,11.06
2022-07-27T10:59:15.057Z,9.42
2022-07-27T11:01:58.399Z,8.25
2022-07-27T11:04:25.416Z,8.73
2022-07-27T11:07:23.452Z,9.76
2022-07-27T11:12:31.082Z,15.36
2022-07-27T11:14:59.240Z,15.88
2022-07-27T11:20:22.546Z,18.04
2022-07-27T11:25:36.146Z,18.04
2022-07-27T11:28:07.586Z,18.94
2022-07-27T11:30:34.427Z,19.03
2022-07-27T11:33:04.766Z,19.36
2022-07-27T11:35:31.568Z,19.82
2022-07-27T11:38:03.810Z,20.32
2022-07-27T11:41:12.785Z,18.69
2022-07-27T11:43:45.409Z,17.41
2022-07-27T11:46:19.990Z,17.32
2022-07-27T11:49:07.531Z,17.33
2022-07-27T11:51:40.097Z,17.63
2022-07-27T11:54:24.821Z,18.58
2022-07-27T11:56:53.081Z,18.46
2022-07-27T11:59:27.853Z,18.17
2022-07-27T12:02:07.139Z,17.36
2022-07-27T12:04:39.485Z,17.81
2022-07-27T12:07:15.875Z,17.76
2022-07-27T12:09:48.027Z,18.58
2022-07-27T12:12:19.773Z,19.01
2022-07-27T12:14:56.642Z,18.26
2022-07-27T12:17:35.568Z,18.33
2022-07-27T12:20:12.946Z,18.11
2022-07-27T12:22:40.680Z,18.34
2022-07-27T12:25:29.828Z,18.17
2022-07-27T12:28:06.809Z,19.03
2022-07-27T12:30:38.906Z,19.23
2022-07-27T12:33:25.531Z,19.60
2022-07-27T12:35:52.255Z,19.74
2022-07-27T12:38:19.172Z,20.03
2022-07-27T12:40:48.426Z,19.86
2022-07-27T12:43:18.137Z,20.16
2022-07-27T12:45:45.957Z,19.97
2022-07-27T12:48:18.445Z,20.92
2022-07-27T12:50:47.402Z,21.48
2022-07-27T12:53:15.846Z,21.12
2022-07-27T12:55:44.178Z,21.57
2022-07-27T12:58:14.118Z,21.16
2022-07-27T13:00:41.285Z,22.39
2022-07-27T13:03:08.645Z,23.09
2022-07-27T13:05:35.757Z,22.37
2022-07-27T13:08:06.263Z,23.02
2022-07-27T13:10:33.295Z,22.78
2022-07-27T13:13:00.222Z,22.15
2022-07-27T13:15:27.209Z,22.38
2022-07-27T13:17:54.203Z,22.60
2022-07-27T13:20:21.234Z,21.77
2022-07-27T13:22:48.411Z,22.56
2022-07-27T13:25:17.503Z,22.16
2022-07-27T13:27:45.334Z,21.61
2022-07-27T13:30:13.531Z,22.11
2022-07-27T13:32:41.209Z,22.38
2022-07-27T13:35:09.516Z,22.25
2022-07-27T13:37:36.484Z,22.36
2022-07-27T13:40:04.900Z,21.92
2022-07-27T13:42:31.606Z,21.78
2022-07-27T13:45:08.740Z,22.41
2022-07-27T13:47:36.977Z,22.50
2022-07-27T13:50:04.810Z,21.91
2022-07-27T13:52:31.546Z,21.96
2022-07-27T13:54:58.312Z,22.41
2022-07-27T13:57:25.198Z,22.11
2022-07-27T13:59:52.303Z,22.39
2022-07-27T14:02:23.014Z,22.97
2022-07-27T14:04:51.908Z,22.40
2022-07-27T14:07:18.839Z,22.54
2022-07-27T14:10:03.741Z,22.13
2022-07-27T14:12:30.392Z,22.66
2022-07-27T14:14:57.125Z,22.46
2022-07-27T14:17:23.841Z,22.04
2022-07-27T14:19:50.492Z,21.78
2022-07-27T14:22:17.150Z,21.50
2022-07-27T14:24:43.766Z,21.19
2022-07-27T14:27:10.435Z,21.46
2022-07-27T14:29:37.163Z,21.66
2022-07-27T14:32:04.217Z,22.33
2022-07-27T14:34:31.004Z,22.40
2022-07-27T14:36:57.711Z,22.18
2022-07-27T14:39:24.606Z,22.13
2022-07-27T14:41:51.565Z,21.53
2022-07-27T14:44:18.877Z,21.56
2022-07-27T14:46:46.842Z,22.33
2022-07-27T14:49:14.853Z,22.03
2022-07-27T14:51:41.824Z,22.49
2022-07-27T14:54:08.635Z,22.83
2022-07-27T14:56:36.628Z,22.25
2022-07-27T14:59:04.019Z,22.32
2022-07-27T15:01:31.065Z,22.21
2022-07-27T15:03:58.048Z,22.30
2022-07-27T15:06:24.798Z,22.70
2022-07-27T15:08:51.543Z,22.38
2022-07-27T15:11:18.279Z,22.79
2022-07-27T15:13:45.245Z,22.18
2022-07-27T15:16:12.284Z,22.13
2022-07-27T15:18:39.259Z,21.74
2022-07-27T15:21:13.483Z,21.78
2022-07-27T15:23:43.327Z,21.81
2022-07-27T15:26:09.956Z,21.87
2022-07-27T15:28:36.849Z,21.47
2022-07-27T15:31:03.649Z,22.13
2022-07-27T15:33:30.596Z,22.15
2022-07-27T15:35:57.260Z,22.19
2022-07-27T15:38:23.920Z,23.42
2022-07-27T15:40:50.668Z,22.70
2022-07-27T15:43:18.386Z,22.81
2022-07-27T15:45:49.881Z,23.17
2022-07-27T15:48:19.477Z,23.05
2022-07-27T15:50:49.876Z,22.49
2022-07-27T15:53:18.778Z,22.62
2022-07-27T15:55:46.528Z,22.08
2022-07-27T15:58:17.984Z,22.27
2022-07-27T16:00:46.884Z,23.00
2022-07-27T16:03:15.105Z,22.75
2022-07-27T16:05:43.718Z,22.94
2022-07-27T16:08:11.047Z,23.23
2022-07-27T16:10:39.549Z,23.48
2022-07-27T16:13:08.817Z,23.21
2022-07-27T16:15:55.308Z,23.99
2022-07-27T16:18:22.959Z,23.81
2022-07-27T16:20:50.273Z,23.62
2022-07-27T16:23:19.170Z,23.37
2022-07-27T16:26:04.441Z,23.14
2022-07-27T16:28:35.103Z,23.33
2022-07-27T16:31:01.976Z,23.08
2022-07-27T16:33:28.717Z,22.87
2022-07-27T16:35:55.390Z,23.12
2022-07-27T16:38:22.158Z,22.67
2022-07-27T16:40:48.998Z,22.37
2022-07-27T16:43:15.697Z,23.21
2022-07-27T16:45:42.590Z,23.18
2022-07-27T16:48:09.883Z,23.27
2022-07-27T16:50:36.563Z,22.85
2022-07-27T16:53:03.281Z,23.81
2022-07-27T16:55:30.103Z,23.84
2022-07-27T16:57:57.063Z,23.76
2022-07-27T17:00:23.750Z,23.70
2022-07-27T17:02:50.610Z,23.78
2022-07-27T17:05:17.278Z,24.23
2022-07-27T17:07:44.039Z,24.09
2022-07-27T17:10:10.787Z,24.23
2022-07-27T17:12:39.138Z,24.54
2022-07-27T17:15:07.333Z,24.11
2022-07-27T17:17:34.687Z,24.35
2022-07-27T17:20:01.492Z,24.40
2022-07-27T17:22:28.166Z,24.87
2022-07-27T17:24:54.949Z,24.53
2022-07-27T17:27:22.099Z,24.71
2022-07-27T17:29:49.547Z,24.77
2022-07-27T17:32:16.480Z,24.84
2022-07-27T17:34:45.396Z,24.64
2022-07-27T17:37:12.826Z,24.97
2022-07-27T17:39:39.551Z,24.76
2022-07-27T17:42:06.443Z,25.21
2022-07-27T17:44:34.023Z,25.17
2022-07-27T17:47:01.590Z,25.30
2022-07-27T17:49:28.676Z,25.16
2022-07-27T17:51:55.752Z,25.31
2022-07-27T17:54:23.919Z,25.78
2022-07-27T17:56:50.683Z,25.65
2022-07-27T17:59:37.127Z,25.66
2022-07-27T18:02:04.855Z,25.90
2022-07-27T18:04:35.629Z,26.10
2022-07-27T18:07:05.488Z,25.84
2022-07-27T18:09:32.172Z,26.31
2022-07-27T18:11:58.986Z,26.38
2022-07-27T18:14:25.771Z,25.92
2022-07-27T18:16:52.466Z,26.43
2022-07-27T18:19:19.166Z,26.24
2022-07-27T18:21:45.885Z,26.07
2022-07-27T18:24:12.536Z,26.58
2022-07-27T18:26:39.209Z,26.30
2022-07-27T18:29:06.428Z,26.27
2022-07-27T18:31:33.163Z,26.05
2022-07-27T18:34:01.550Z,26.70
2022-07-27T18:36:28.798Z,26.76
2022-07-27T18:38:55.792Z,26.78
2022-07-27T18:41:24.776Z,26.87
2022-07-27T18:43:51.674Z,26.84
2022-07-27T18:46:23.414Z,27.09
2022-07-27T18:48:50.606Z,27.38
2022-07-27T18:51:17.495Z,27.53
2022-07-27T18:53:44.953Z,27.27
2022-07-27T18:56:12.273Z,27.65
2022-07-27T18:58:40.600Z,27.67
2022-07-27T19:01:09.629Z,27.59
2022-07-27T19:03:37.427Z,27.63
2022-07-27T19:06:07.453Z,27.77
2022-07-27T19:08:35.266Z,27.78
2022-07-27T19:11:01.944Z,27.69
2022-07-27T19:13:28.819Z,28.12
2022-07-27T19:15:55.641Z,28.01
2022-07-27T19:18:25.087Z,27.78
2022-07-27T19:20:51.807Z,27.94
2022-07-27T19:23:18.617Z,28.13
2022-07-27T19:25:45.556Z,28.17
2022-07-27T19:28:15.838Z,28.37
2022-07-27T19:30:42.855Z,27.85
2022-07-27T19:33:09.536Z,28.21
2022-07-27T19:35:36.384Z,28.47
2022-07-27T19:38:03.743Z,28.56
2022-07-27T19:40:43.927Z,28.23
2022-07-27T19:43:11.646Z,28.90
2022-07-27T19:45:38.396Z,28.54
2022-07-27T19:48:06.049Z,28.65
2022-07-27T19:50:32.997Z,28.74
2022-07-27T19:53:00.373Z,28.73
2022-07-27T19:55:27.175Z,29.35
2022-07-27T19:57:53.940Z,28.92
2022-07-27T20:00:21.091Z,29.16
2022-07-27T20:02:48.281Z,29.02
2022-07-27T20:05:15.236Z,29.02
2022-07-27T20:07:42.081Z,29.08
2022-07-27T20:10:09.629Z,28.93
2022-07-27T20:12:36.446Z,29.03
2022-07-27T20:15:05.019Z,29.37
2022-07-27T20:17:36.819Z,29.30
2022-07-27T20:20:07.689Z,29.03
2022-07-27T20:22:34.441Z,29.33
2022-07-27T20:25:02.316Z,29.20
2022-07-27T20:27:29.066Z,29.71
2022-07-27T20:29:55.784Z,29.43
2022-07-27T20:32:22.509Z,29.25
2022-07-27T20:34:49.202Z,29.64
2022-07-27T20:37:16.351Z,29.62
2022-07-27T20:39:43.104Z,29.83
2022-07-27T20:42:10.884Z,29.85
2022-07-27T20:44:37.663Z,30.04
2022-07-27T20:47:06.245Z,30.10
2022-07-27T20:49:34.281Z,30.38
2022-07-27T20:52:01.996Z,30.10
2022-07-27T20:54:29.821Z,30.26
2022-07-27T20:56:58.092Z,30.04
2022-07-27T20:59:24.953Z,29.79
2022-07-27T21:01:52.622Z,29.89
2022-07-27T21:04:20.446Z,30.38
2022-07-27T21:06:47.597Z,30.46
2022-07-27T21:09:15.636Z,30.27
2022-07-27T21:11:43.259Z,30.66
2022-07-27T21:14:10.243Z,30.42
2022-07-27T21:16:37.451Z,30.15
2022-07-27T21:19:04.704Z,30.85
2022-07-27T21:21:32.453Z,30.18
2022-07-27T21:24:19.978Z,30.23
2022-07-27T21:26:51.687Z,30.55
2022-07-27T21:29:20.458Z,30.54
2022-07-27T21:31:49.475Z,30.65
2022-07-27T21:34:20.017Z,30.35
2022-07-27T21:36:47.741Z,30.37
2022-07-27T21:39:14.945Z,30.54
2022-07-27T21:41:41.824Z,30.25
2022-07-27T21:44:08.775Z,30.41
2022-07-27T21:46:35.645Z,30.39
2022-07-27T21:49:03.366Z,30.35
2022-07-27T21:51:30.313Z,30.61
2022-07-27T21:53:57.193Z,30.70
2022-07-27T21:56:24.560Z,30.38
2022-07-27T21:58:52.027Z,30.71
2022-07-27T22:01:19.316Z,30.67
2022-07-27T22:03:46.888Z,30.21
2022-07-27T22:06:13.850Z,30.75
2022-07-27T22:08:40.641Z,30.08
2022-07-27T22:11:10.381Z,30.85
2022-07-27T22:13:37.610Z,30.82
2022-07-27T22:16:04.979Z,30.59
2022-07-27T22:18:32.323Z,30.68
2022-07-27T22:20:59.080Z,30.65
2022-07-27T22:23:25.850Z,30.64
2022-07-27T22:25:52.598Z,30.63
2022-07-27T22:28:19.394Z,30.78
2022-07-27T22:31:00.150Z,30.82
2022-07-27T22:33:37.261Z,30.41
2022-07-27T22:36:07.161Z,31.02
2022-07-27T22:38:34.315Z,30.65
2022-07-27T22:41:01.628Z,30.34
2022-07-27T22:43:28.471Z,30.61
2022-07-27T22:45:57.167Z,30.50
2022-07-27T22:48:24.784Z,30.85
2022-07-27T22:50:51.611Z,30.62
2022-07-27T22:53:18.414Z,30.39
2022-07-27T22:55:45.045Z,30.79
2022-07-27T22:58:11.843Z,30.55
2022-07-27T23:00:38.891Z,30.62
2022-07-27T23:03:05.775Z,30.64
2022-07-27T23:05:32.890Z,30.67
2022-07-27T23:07:59.679Z,30.76
2022-07-27T23:10:45.313Z,30.76
2022-07-27T23:13:15.619Z,30.61
2022-07-27T23:15:43.470Z,31.00
2022-07-27T23:18:10.485Z,30.81
2022-07-27T23:20:37.665Z,30.79
2022-07-27T23:23:05.480Z,30.85
2022-07-27T23:25:42.900Z,30.77
2022-07-27T23:28:09.723Z,30.80
2022-07-27T23:30:36.571Z,31.26
2022-07-27T23:33:03.379Z,31.48
2022-07-27T23:35:30.575Z,31.02
2022-07-27T23:37:57.422Z,31.19
2022-07-27T23:40:24.144Z,31.61
2022-07-27T23:42:50.856Z,32.15
2022-07-27T23:45:17.912Z,32.63
2022-07-27T23:47:45.218Z,32.63
2022-07-27T23:50:14.422Z,32.34
2022-07-27T23:52:41.167Z,32.35
2022-07-27T23:55:08.445Z,32.34
2022-07-27T23:57:35.313Z,32.58
